CST,Max TemperatureF,Mean TemperatureF,Min TemperatureF,Max Dew PointF,MeanDew PointF,Min DewpointF,Max Humidity, Mean Humidity, Min Humidity, Max Sea Level PressureIn, Mean Sea Level PressureIn, Min Sea Level PressureIn, Max VisibilityMiles, Mean VisibilityMiles, Min VisibilityMiles, Max Wind SpeedMPH, Mean Wind SpeedMPH, Max Gust SpeedMPH,PrecipitationIn, CloudCover, Events, WindDirDegrees
2012-12-1,77,57,37,36,26,21,76,35,14,30.03,29.88,29.80,10,10,10,20,8,25,0.00,0,,265
2012-12-2,75,54,32,30,25,18,81,42,15,30.05,29.94,29.79,10,10,10,21,9,29,0.00,0,,220
2012-12-3,71,60,48,34,26,18,58,30,18,30.16,29.90,29.72,10,10,10,26,16,33,0.00,0,,320
2012-12-4,60,46,33,34,22,10,81,41,15,30.40,30.29,30.16,10,10,10,12,5,,0.00,1,,135
2012-12-5,64,48,33,25,18,12,45,30,19,30.29,30.10,29.86,10,10,10,24,9,31,0.00,0,,192
2012-12-6,62,50,37,30,27,21,65,43,27,29.94,29.85,29.76,10,10,10,23,14,29,0.00,0,,343
2012-12-7,59,44,28,28,25,21,75,54,31,29.95,29.89,29.79,10,10,10,9,4,,0.00,0,,307
2012-12-8,53,40,26,37,32,23,100,79,54,29.95,29.83,29.68,10,9,1,15,5,18,0.00,3,,176
2012-12-9,41,32,23,37,17,3,93,53,28,30.24,30.04,29.70,10,10,4,28,15,33,0.00,6,,359
2012-12-10,41,24,6,14,4,-2,73,44,17,30.23,30.08,29.94,10,10,10,20,9,24,0.00,0,,252
2012-12-11,46,29,12,14,10,5,79,45,18,30.11,30.04,29.98,10,10,10,16,5,18,0.00,1,,211
2012-12-12,62,44,26,14,13,10,55,31,15,30.06,29.99,29.92,10,10,10,23,14,29,0.00,0,,206
2012-12-13,71,52,33,28,14,9,53,27,10,30.08,30.01,29.96,10,10,10,22,13,29,0.00,0,,211
2012-12-14,59,50,41,50,41,28,100,78,53,30.00,29.76,29.54,10,10,2,32,11,45,0.20,3,Rain,191
2012-12-15,60,48,35,32,30,28,81,54,29,29.80,29.72,29.61,10,10,10,28,17,40,0.00,0,,241
2012-12-16,51,40,30,34,30,25,100,72,37,29.86,29.74,29.68,10,9,0,25,12,30,0.00,1,Fog,284
2012-12-17,55,40,26,32,27,18,100,72,23,29.88,29.81,29.70,10,8,0,15,7,,0.00,1,Fog,232
2012-12-18,57,44,32,28,24,18,87,49,21,29.87,29.77,29.70,10,10,10,18,10,,0.00,0,,215
2012-12-19,69,48,28,32,26,18,87,55,16,30.06,29.67,29.41,10,10,5,37,10,54,0.00,2,Snow,284
2012-12-20,50,36,21,19,6,0,64,37,13,30.38,30.29,30.08,10,10,10,26,15,38,0.00,0,,281
2012-12-21,66,45,24,9,5,0,47,25,8,30.32,30.22,30.13,10,10,10,17,10,21,0.00,0,,232
2012-12-22,59,44,30,16,8,3,48,25,13,30.13,30.00,29.93,10,10,10,18,10,,0.00,0,,243
2012-12-23,53,36,19,21,19,16,93,55,24,29.99,29.94,29.85,10,10,10,13,4,,0.00,0,,280
2012-12-24,50,37,24,23,18,14,80,55,24,30.02,29.89,29.76,10,10,10,17,8,24,0.00,1,,133
2012-12-25,28,20,12,19,14,9,86,80,64,30.29,30.09,29.82,10,7,0,24,17,33,0.00,5,Snow,10
2012-12-26,32,16,1,19,10,0,92,75,54,30.26,30.07,29.84,10,10,10,20,7,29,0.00,1,,185
2012-12-27,32,24,17,21,18,14,86,76,60,29.94,29.81,29.73,10,10,10,22,10,29,0.00,2,,326
2012-12-28,35,24,12,19,17,9,93,76,52,30.19,30.05,29.94,10,10,10,14,8,18,0.00,2,,320
2012-12-29,44,30,17,21,17,12,86,62,27,30.37,30.27,30.19,10,10,10,17,9,22,0.00,0,,210
2012-12-30,42,36,30,28,19,16,81,51,34,30.22,30.10,30.00,10,10,7,24,13,31,0.00,1,Rain,197
2012-12-31,33,27,21,32,27,19,100,93,86,30.13,29.99,29.91,10,8,2,17,7,23,0.25,7,Rain-Snow,315